createdAt,value
2023-03-17T08:39:12.975Z,3.00
2023-03-17T08:41:41.824Z,3.70
2023-03-17T08:44:10.907Z,3.90
2023-03-17T08:47:25.118Z,3.90
2023-03-17T08:49:53.508Z,2.30
2023-03-17T08:52:22.488Z,2.10
2023-03-17T08:54:50.474Z,2.00
2023-03-17T08:57:19.661Z,3.10
2023-03-17T08:59:48.205Z,2.90
2023-03-17T09:02:16.260Z,1.80
2023-03-17T09:04:44.393Z,2.30
2023-03-17T09:07:13.325Z,1.90
2023-03-17T09:09:42.494Z,2.40
2023-03-17T09:12:11.232Z,2.30
2023-03-17T09:14:44.404Z,2.20
2023-03-17T09:17:13.964Z,2.30
2023-03-17T09:19:42.013Z,2.20
2023-03-17T09:22:14.786Z,2.40
2023-03-17T09:24:42.731Z,2.00
2023-03-17T09:27:13.595Z,2.10
2023-03-17T09:29:42.801Z,2.80
2023-03-17T09:32:11.314Z,2.00
2023-03-17T09:34:39.464Z,2.10
2023-03-17T09:37:10.060Z,2.20
2023-03-17T09:39:39.206Z,2.00
2023-03-17T09:42:33.557Z,2.30
2023-03-17T09:45:13.477Z,2.10
2023-03-17T09:48:21.800Z,1.80
2023-03-17T09:51:05.111Z,1.90
2023-03-17T09:53:42.883Z,2.30
2023-03-17T09:56:16.416Z,2.30
2023-03-17T09:58:59.636Z,2.60
2023-03-17T10:01:28.313Z,2.70
2023-03-17T10:03:56.542Z,2.30
2023-03-17T10:06:39.052Z,1.80
2023-03-17T10:09:28.374Z,1.90
2023-03-17T10:12:11.156Z,2.10
2023-03-17T10:14:56.441Z,2.40
2023-03-17T10:17:31.077Z,1.70
2023-03-17T10:20:29.236Z,2.00
2023-03-17T10:22:59.712Z,2.10
2023-03-17T10:25:35.534Z,2.00
2023-03-17T10:28:14.529Z,2.20
2023-03-17T10:30:44.055Z,2.10
2023-03-17T10:33:12.725Z,2.10
2023-03-17T10:35:44.897Z,2.20
2023-03-17T10:38:21.568Z,1.90
2023-03-17T10:41:07.017Z,2.10
2023-03-17T10:43:41.146Z,2.30
2023-03-17T10:46:22.420Z,2.40
2023-03-17T10:48:56.573Z,2.20
2023-03-17T10:51:32.691Z,2.30
2023-03-17T10:54:02.317Z,2.50
2023-03-17T10:56:34.070Z,2.20
2023-03-17T10:59:15.076Z,2.20
2023-03-17T11:01:54.172Z,2.50
2023-03-17T11:04:30.869Z,2.30
2023-03-17T11:07:01.172Z,2.60
2023-03-17T11:09:30.680Z,2.50
2023-03-17T11:12:18.874Z,2.10
2023-03-17T11:14:48.458Z,1.90
2023-03-17T11:17:19.120Z,2.00
2023-03-17T11:20:07.445Z,2.00
2023-03-17T11:22:43.132Z,2.20
2023-03-17T11:25:19.466Z,1.90
2023-03-17T11:27:52.208Z,2.10
2023-03-17T11:30:40.133Z,2.30
2023-03-17T11:33:23.298Z,2.50
2023-03-17T11:36:01.091Z,2.30
2023-03-17T11:38:31.018Z,2.80
2023-03-17T11:41:21.102Z,2.90
2023-03-17T11:44:27.274Z,3.10
2023-03-17T11:47:06.715Z,3.00
2023-03-17T11:49:37.727Z,2.70
2023-03-17T11:52:38.899Z,2.70
2023-03-17T11:55:31.311Z,2.60
2023-03-17T11:58:05.349Z,2.60
2023-03-17T12:00:43.840Z,2.30
2023-03-17T12:03:20.185Z,2.20
2023-03-17T12:05:50.475Z,2.20
2023-03-17T12:08:38.713Z,2.70
2023-03-17T12:11:10.690Z,2.10
2023-03-17T12:13:43.066Z,2.50
2023-03-17T12:16:21.923Z,2.50
2023-03-17T12:19:24.649Z,2.70
2023-03-17T12:21:59.458Z,2.10
2023-03-17T12:24:43.936Z,1.90
2023-03-17T12:27:28.739Z,2.40
2023-03-17T12:30:06.622Z,2.20
2023-03-17T12:32:46.697Z,2.20
2023-03-17T12:35:29.635Z,2.60
2023-03-17T12:37:59.265Z,2.50
2023-03-17T12:40:36.381Z,2.40
2023-03-17T12:43:29.321Z,2.60
2023-03-17T12:46:08.982Z,2.50
2023-03-17T12:48:50.555Z,2.40
2023-03-17T12:51:43.928Z,2.40
2023-03-17T12:54:15.414Z,2.30
2023-03-17T12:56:44.941Z,2.50
2023-03-17T12:59:21.280Z,2.40
2023-03-17T13:01:57.531Z,2.50
2023-03-17T13:04:32.408Z,2.10
2023-03-17T13:07:18.301Z,1.90
2023-03-17T13:09:55.324Z,2.10
2023-03-17T13:12:44.524Z,5.00
2023-03-17T13:15:26.932Z,3.00
2023-03-17T13:18:22.618Z,2.20
2023-03-17T13:20:56.687Z,2.30
2023-03-17T13:23:41.921Z,2.40
2023-03-17T13:26:20.963Z,2.50
2023-03-17T13:28:51.087Z,2.50
2023-03-17T13:31:31.185Z,2.50
2023-03-17T13:34:14.301Z,2.50
2023-03-17T13:37:01.724Z,2.50
2023-03-17T13:39:42.315Z,2.60
2023-03-17T13:42:25.909Z,2.60
2023-03-17T13:45:22.098Z,2.60
2023-03-17T13:47:51.278Z,2.70
2023-03-17T13:50:25.477Z,2.20
2023-03-17T13:52:56.560Z,2.40
2023-03-17T13:55:25.145Z,2.30
2023-03-17T13:58:23.250Z,2.20
2023-03-17T14:00:56.672Z,2.40
2023-03-17T14:03:36.712Z,2.40
2023-03-17T14:06:06.748Z,2.60
2023-03-17T14:08:37.574Z,2.40
2023-03-17T14:11:36.688Z,2.30
2023-03-17T14:14:37.313Z,2.50
2023-03-17T14:17:21.093Z,2.60
2023-03-17T14:20:19.794Z,3.10
2023-03-17T14:22:53.867Z,2.70
2023-03-17T14:25:36.178Z,2.50
2023-03-17T14:28:06.139Z,2.90
2023-03-17T14:30:35.027Z,3.50
2023-03-17T14:33:23.612Z,3.60
2023-03-17T14:35:53.046Z,3.30
2023-03-17T14:38:31.354Z,3.40
2023-03-17T14:41:20.900Z,3.70
2023-03-17T14:43:49.629Z,2.80
2023-03-17T14:46:22.994Z,3.80
2023-03-17T14:48:56.464Z,3.20
2023-03-17T14:51:26.462Z,3.60
2023-03-17T14:53:57.406Z,3.90
2023-03-17T14:56:35.760Z,3.10
2023-03-17T14:59:16.216Z,3.00
2023-03-17T15:01:47.681Z,3.20
2023-03-17T15:04:29.854Z,3.70
2023-03-17T15:07:02.784Z,3.70
2023-03-17T15:09:34.168Z,3.60
2023-03-17T15:12:13.303Z,3.70
2023-03-17T15:14:42.298Z,3.30
2023-03-17T15:17:21.981Z,3.10
2023-03-17T15:19:52.823Z,3.70
2023-03-17T15:22:24.678Z,3.60
2023-03-17T15:25:00.234Z,3.50
2023-03-17T15:27:30.017Z,3.60
2023-03-17T15:29:58.522Z,4.50
2023-03-17T15:32:26.979Z,3.80
2023-03-17T15:34:57.136Z,3.80
2023-03-17T15:37:29.443Z,3.60
2023-03-17T15:39:57.992Z,3.40
2023-03-17T15:42:31.166Z,3.80
2023-03-17T15:45:02.988Z,3.20
2023-03-17T15:47:32.944Z,4.00
2023-03-17T15:50:25.540Z,3.40
2023-03-17T15:52:56.460Z,3.80
2023-03-17T15:55:29.907Z,3.50
2023-03-17T15:57:58.466Z,3.80
2023-03-17T16:00:34.830Z,4.00
2023-03-17T16:03:28.332Z,3.70
2023-03-17T16:05:56.271Z,3.80
2023-03-17T16:08:24.919Z,3.80
2023-03-17T16:10:53.476Z,4.40
2023-03-17T16:13:22.398Z,4.50
2023-03-17T16:15:57.151Z,4.50
2023-03-17T16:18:36.131Z,4.80
2023-03-17T16:21:09.154Z,5.90
2023-03-17T16:23:40.216Z,4.90
2023-03-17T16:26:15.572Z,4.70
2023-03-17T16:28:46.119Z,4.90
2023-03-17T16:31:26.822Z,4.30
2023-03-17T16:33:54.982Z,4.10
2023-03-17T16:36:23.953Z,3.90
2023-03-17T16:38:52.147Z,4.50
2023-03-17T16:41:23.657Z,3.70
2023-03-17T16:43:55.315Z,3.90
2023-03-17T16:46:24.162Z,4.10
2023-03-17T16:48:59.435Z,4.00
2023-03-17T16:51:29.783Z,4.30
2023-03-17T16:54:00.761Z,4.30
2023-03-17T16:56:29.986Z,4.80
2023-03-17T16:58:58.786Z,4.20
2023-03-17T17:01:27.853Z,5.40
2023-03-17T17:03:56.888Z,5.20
2023-03-17T17:06:28.292Z,5.40
2023-03-17T17:08:56.331Z,5.40
2023-03-17T17:11:24.519Z,4.80
2023-03-17T17:13:53.531Z,4.20
2023-03-17T17:16:21.929Z,4.20
2023-03-17T17:18:49.951Z,4.80
2023-03-17T17:21:19.083Z,4.40
2023-03-17T17:23:47.219Z,5.40
2023-03-17T17:26:21.232Z,5.10
2023-03-17T17:28:49.705Z,4.40
2023-03-17T17:31:17.989Z,4.50
2023-03-17T17:33:47.093Z,4.80
2023-03-17T17:36:16.240Z,4.60
2023-03-17T17:38:44.536Z,4.50
2023-03-17T17:41:12.537Z,4.90
2023-03-17T17:43:41.364Z,5.00
2023-03-17T17:46:11.930Z,4.70
2023-03-17T17:48:39.923Z,5.00
2023-03-17T17:51:07.861Z,4.50
2023-03-17T17:53:38.354Z,4.80
2023-03-17T17:56:06.813Z,4.50
2023-03-17T17:58:36.314Z,5.30
2023-03-17T18:01:05.621Z,4.40
2023-03-17T18:03:33.987Z,4.80
2023-03-17T18:06:02.612Z,5.20
2023-03-17T18:08:30.881Z,5.50
2023-03-17T18:10:59.737Z,5.30
2023-03-17T18:13:28.307Z,4.50
2023-03-17T18:15:57.181Z,5.80
2023-03-17T18:18:27.533Z,5.20
2023-03-17T18:20:55.832Z,5.90
2023-03-17T18:23:24.092Z,4.70
2023-03-17T18:25:59.941Z,5.30
2023-03-17T18:28:28.186Z,5.60
2023-03-17T18:31:09.608Z,6.50
2023-03-17T18:33:40.604Z,6.00
2023-03-17T18:36:08.975Z,6.00
2023-03-17T18:38:37.708Z,5.80
2023-03-17T18:41:06.998Z,6.00
2023-03-17T18:43:38.872Z,5.90
2023-03-17T18:46:07.555Z,6.90
2023-03-17T18:48:36.432Z,6.30
2023-03-17T18:51:06.954Z,6.30
2023-03-17T18:53:35.666Z,5.80
2023-03-17T18:56:07.088Z,6.50
2023-03-17T18:58:36.209Z,5.90
2023-03-17T19:01:05.110Z,5.80
2023-03-17T19:03:35.301Z,5.90
2023-03-17T19:06:14.277Z,5.80
2023-03-17T19:08:42.460Z,6.10
2023-03-17T19:11:11.489Z,6.10
2023-03-17T19:13:39.951Z,5.10
2023-03-17T19:16:11.880Z,5.40
2023-03-17T19:18:42.497Z,5.40
2023-03-17T19:21:11.377Z,5.50
2023-03-17T19:23:43.692Z,5.90
2023-03-17T19:26:11.963Z,6.20
2023-03-17T19:28:39.923Z,6.60
2023-03-17T19:31:07.865Z,6.40
2023-03-17T19:33:36.650Z,6.80
2023-03-17T19:36:11.968Z,6.70
2023-03-17T19:38:43.719Z,7.40
2023-03-17T19:41:12.165Z,7.50
2023-03-17T19:43:41.618Z,7.30
2023-03-17T19:46:11.416Z,7.70
2023-03-17T19:48:40.881Z,8.10
2023-03-17T19:51:09.419Z,8.50
2023-03-17T19:53:45.024Z,8.70
2023-03-17T19:56:12.978Z,7.60
2023-03-17T19:58:41.412Z,7.60
2023-03-17T20:01:09.672Z,8.50
2023-03-17T20:03:42.467Z,7.70
2023-03-17T20:06:16.898Z,8.80
2023-03-17T20:08:45.821Z,10.20
2023-03-17T20:11:13.976Z,9.10
2023-03-17T20:13:42.038Z,8.80
2023-03-17T20:16:10.164Z,9.20
2023-03-17T20:18:38.237Z,9.40
2023-03-17T20:21:11.720Z,10.60
2023-03-17T20:23:39.841Z,9.70
2023-03-17T20:26:08.455Z,11.90
2023-03-17T20:28:36.933Z,10.90
2023-03-17T20:31:05.032Z,9.60
2023-03-17T20:33:34.991Z,10.20
2023-03-17T20:36:04.767Z,8.70
2023-03-17T20:38:36.893Z,9.60
2023-03-17T20:41:25.630Z,9.40
2023-03-17T20:43:53.650Z,9.70
2023-03-17T20:46:22.777Z,9.30
2023-03-17T20:48:58.788Z,9.50
2023-03-17T20:51:31.355Z,9.90
2023-03-17T20:54:00.858Z,10.60
2023-03-17T20:56:29.843Z,9.70
2023-03-17T20:59:04.976Z,9.20
2023-03-17T21:01:33.603Z,9.10
2023-03-17T21:04:05.777Z,8.30
2023-03-17T21:06:34.353Z,9.50
2023-03-17T21:09:02.692Z,9.30
2023-03-17T21:11:31.876Z,8.40
2023-03-17T21:14:00.004Z,8.00
2023-03-17T21:16:28.601Z,8.30
2023-03-17T21:18:59.065Z,8.70
2023-03-17T21:21:27.429Z,8.00
2023-03-17T21:23:55.812Z,8.20
2023-03-17T21:26:24.775Z,9.40
2023-03-17T21:28:53.556Z,8.80
2023-03-17T21:31:21.606Z,8.00
2023-03-17T21:33:51.123Z,8.60
2023-03-17T21:36:20.937Z,9.10
2023-03-17T21:38:50.208Z,9.00
2023-03-17T21:41:30.532Z,8.70
2023-03-17T21:43:59.612Z,7.70
2023-03-17T21:46:27.726Z,8.80
2023-03-17T21:48:56.125Z,8.50
2023-03-17T21:51:26.101Z,8.30
2023-03-17T21:53:54.498Z,9.50
2023-03-17T21:56:23.125Z,8.70
2023-03-17T21:58:52.226Z,8.60
2023-03-17T22:01:22.207Z,9.20
2023-03-17T22:03:51.306Z,9.00
2023-03-17T22:06:20.377Z,8.80
2023-03-17T22:08:50.627Z,9.50
2023-03-17T22:11:20.133Z,9.30
2023-03-17T22:13:48.838Z,9.10
2023-03-17T22:16:17.214Z,9.20
2023-03-17T22:18:47.555Z,9.50
2023-03-17T22:21:16.139Z,9.40
2023-03-17T22:23:46.373Z,8.40
2023-03-17T22:26:17.242Z,9.00
2023-03-17T22:28:50.905Z,9.00
2023-03-17T22:31:24.038Z,9.30
2023-03-17T22:33:55.345Z,9.90
2023-03-17T22:36:28.140Z,9.10
2023-03-17T22:39:00.176Z,9.30
2023-03-17T22:41:32.139Z,9.20
2023-03-17T22:44:04.119Z,9.70
2023-03-17T22:46:35.140Z,9.30
2023-03-17T22:49:06.815Z,11.10
2023-03-17T22:51:38.195Z,9.60
2023-03-17T22:54:13.245Z,9.70
2023-03-17T22:56:45.495Z,8.40
2023-03-17T22:59:16.799Z,10.40
2023-03-17T23:01:48.185Z,10.30
2023-03-17T23:04:20.092Z,10.10
2023-03-17T23:06:52.487Z,9.60
2023-03-17T23:09:24.147Z,9.00
2023-03-17T23:11:54.391Z,9.60
2023-03-17T23:14:26.569Z,10.10
2023-03-17T23:16:57.718Z,10.00
2023-03-17T23:19:31.479Z,10.20
2023-03-17T23:22:03.119Z,10.60
2023-03-17T23:24:33.696Z,10.30
2023-03-17T23:27:04.476Z,10.20
2023-03-17T23:29:35.135Z,11.40
2023-03-17T23:32:06.713Z,11.40
2023-03-17T23:42:32.848Z,9.20
2023-03-17T23:45:01.530Z,10.20
2023-03-17T23:47:29.342Z,9.90
2023-03-17T23:49:57.876Z,11.00
2023-03-17T23:52:25.048Z,11.00
2023-03-17T23:54:52.778Z,10.50
2023-03-17T23:57:19.547Z,11.10
2023-03-17T23:59:46.401Z,10.70
